sensor_id;sensor_type;location;lat;lon;timestamp;pressure;altitude;pressure_sealevel;temperature;humidity
14117;BME280;7137;51.436;6.544;2023-07-24T00:00:26;100127.50;;;18.34;100.00
14117;BME280;7137;51.436;6.544;2023-07-24T00:03:27;100122.25;;;18.46;100.00
14117;BME280;7137;51.436;6.544;2023-07-24T00:06:29;100123.94;;;18.47;100.00
14117;BME280;7137;51.436;6.544;2023-07-24T00:09:30;100123.84;;;18.48;100.00
14117;BME280;7137;51.436;6.544;2023-07-24T00:12:33;100118.81;;;18.56;100.00
14117;BME280;7137;51.436;6.544;2023-07-24T00:15:35;100115.53;;;18.53;100.00
14117;BME280;7137;51.436;6.544;2023-07-24T00:18:37;100116.84;;;18.47;100.00
14117;BME280;7137;51.436;6.544;2023-07-24T00:21:38;100108.88;;;18.36;100.00
14117;BME280;7137;51.436;6.544;2023-07-24T00:24:40;100106.88;;;18.27;100.00
14117;BME280;7137;51.436;6.544;2023-07-24T00:27:43;100109.31;;;18.30;100.00
14117;BME280;7137;51.436;6.544;2023-07-24T00:30:44;100101.88;;;18.35;100.00
14117;BME280;7137;51.436;6.544;2023-07-24T00:33:46;100104.19;;;18.39;100.00
14117;BME280;7137;51.436;6.544;2023-07-24T00:36:47;100087.34;;;18.40;100.00
14117;BME280;7137;51.436;6.544;2023-07-24T00:39:49;100092.94;;;18.49;100.00
14117;BME280;7137;51.436;6.544;2023-07-24T00:42:52;100098.94;;;18.51;100.00
14117;BME280;7137;51.436;6.544;2023-07-24T00:45:54;100091.97;;;18.50;100.00
14117;BME280;7137;51.436;6.544;2023-07-24T00:48:57;100083.91;;;18.51;100.00
14117;BME280;7137;51.436;6.544;2023-07-24T00:51:59;100083.56;;;18.56;100.00
14117;BME280;7137;51.436;6.544;2023-07-24T00:55:01;100073.81;;;18.56;100.00
14117;BME280;7137;51.436;6.544;2023-07-24T00:58:04;100077.63;;;18.41;100.00
14117;BME280;7137;51.436;6.544;2023-07-24T01:01:06;100070.31;;;18.45;100.00
14117;BME280;7137;51.436;6.544;2023-07-24T01:04:08;100059.00;;;18.43;100.00
14117;BME280;7137;51.436;6.544;2023-07-24T01:07:09;100057.53;;;18.38;100.00
14117;BME280;7137;51.436;6.544;2023-07-24T01:10:11;100049.97;;;18.34;100.00
14117;BME280;7137;51.436;6.544;2023-07-24T01:13:16;100046.13;;;18.38;100.00
14117;BME280;7137;51.436;6.544;2023-07-24T01:16:20;100034.56;;;18.39;100.00
14117;BME280;7137;51.436;6.544;2023-07-24T01:19:33;100023.84;;;18.29;100.00
14117;BME280;7137;51.436;6.544;2023-07-24T01:22:39;100023.28;;;18.37;100.00
14117;BME280;7137;51.436;6.544;2023-07-24T01:25:53;100025.56;;;18.30;100.00
14117;BME280;7137;51.436;6.544;2023-07-24T01:28:55;100023.28;;;18.37;100.00
14117;BME280;7137;51.436;6.544;2023-07-24T01:31:57;100018.22;;;18.34;100.00
14117;BME280;7137;51.436;6.544;2023-07-24T01:34:59;100009.31;;;18.35;100.00
14117;BME280;7137;51.436;6.544;2023-07-24T01:38:01;100008.72;;;18.31;100.00
14117;BME280;7137;51.436;6.544;2023-07-24T01:41:05;100023.94;;;18.28;100.00
14117;BME280;7137;51.436;6.544;2023-07-24T01:44:07;100006.06;;;18.31;100.00
14117;BME280;7137;51.436;6.544;2023-07-24T01:47:08;100000.03;;;18.29;100.00
14117;BME280;7137;51.436;6.544;2023-07-24T01:50:10;99996.66;;;18.27;100.00
14117;BME280;7137;51.436;6.544;2023-07-24T01:53:12;99993.19;;;18.27;100.00
14117;BME280;7137;51.436;6.544;2023-07-24T01:56:15;100001.34;;;18.24;100.00
14117;BME280;7137;51.436;6.544;2023-07-24T01:59:17;100000.03;;;18.18;100.00
14117;BME280;7137;51.436;6.544;2023-07-24T02:02:18;99984.34;;;18.15;100.00
14117;BME280;7137;51.436;6.544;2023-07-24T02:05:21;99989.31;;;18.20;100.00
14117;BME280;7137;51.436;6.544;2023-07-24T02:08:22;99980.66;;;18.18;100.00
14117;BME280;7137;51.436;6.544;2023-07-24T02:11:25;99974.78;;;18.25;100.00
14117;BME280;7137;51.436;6.544;2023-07-24T02:14:27;99969.00;;;18.20;100.00
14117;BME280;7137;51.436;6.544;2023-07-24T02:17:28;99974.91;;;18.24;100.00
14117;BME280;7137;51.436;6.544;2023-07-24T02:20:30;99968.66;;;18.25;100.00
14117;BME280;7137;51.436;6.544;2023-07-24T02:23:31;99961.13;;;18.31;100.00
14117;BME280;7137;51.436;6.544;2023-07-24T02:26:34;99971.72;;;18.43;100.00
14117;BME280;7137;51.436;6.544;2023-07-24T02:29:36;99968.47;;;18.39;100.00
14117;BME280;7137;51.436;6.544;2023-07-24T02:32:37;99961.50;;;18.38;100.00
14117;BME280;7137;51.436;6.544;2023-07-24T02:35:39;99955.13;;;18.40;100.00
14117;BME280;7137;51.436;6.544;2023-07-24T02:38:41;99957.75;;;18.40;100.00
14117;BME280;7137;51.436;6.544;2023-07-24T02:41:44;99961.59;;;18.36;100.00
14117;BME280;7137;51.436;6.544;2023-07-24T02:44:46;99952.47;;;18.40;100.00
14117;BME280;7137;51.436;6.544;2023-07-24T02:47:48;99961.63;;;18.48;100.00
14117;BME280;7137;51.436;6.544;2023-07-24T02:50:49;99958.28;;;18.57;100.00
14117;BME280;7137;51.436;6.544;2023-07-24T02:53:53;99953.47;;;18.51;100.00
14117;BME280;7137;51.436;6.544;2023-07-24T02:56:57;99950.81;;;18.51;100.00
14117;BME280;7137;51.436;6.544;2023-07-24T02:59:58;99951.94;;;18.59;100.00
14117;BME280;7137;51.436;6.544;2023-07-24T03:03:00;99950.47;;;18.55;100.00
14117;BME280;7137;51.436;6.544;2023-07-24T03:06:01;99948.28;;;18.49;100.00
14117;BME280;7137;51.436;6.544;2023-07-24T03:09:03;99956.81;;;18.42;100.00
14117;BME280;7137;51.436;6.544;2023-07-24T03:12:06;99954.03;;;18.32;100.00
14117;BME280;7137;51.436;6.544;2023-07-24T03:15:09;99949.72;;;18.42;100.00
14117;BME280;7137;51.436;6.544;2023-07-24T03:18:10;99942.00;;;18.39;100.00
14117;BME280;7137;51.436;6.544;2023-07-24T03:21:12;99949.09;;;18.38;100.00
14117;BME280;7137;51.436;6.544;2023-07-24T03:24:14;99949.72;;;18.42;100.00
14117;BME280;7137;51.436;6.544;2023-07-24T03:27:17;99940.09;;;18.41;100.00
14117;BME280;7137;51.436;6.544;2023-07-24T03:30:18;99943.47;;;18.43;100.00
14117;BME280;7137;51.436;6.544;2023-07-24T03:33:20;99939.22;;;18.29;100.00
14117;BME280;7137;51.436;6.544;2023-07-24T03:36:21;99942.25;;;18.36;100.00
14117;BME280;7137;51.436;6.544;2023-07-24T03:39:23;99935.75;;;18.40;100.00
14117;BME280;7137;51.436;6.544;2023-07-24T03:42:28;99941.41;;;18.35;100.00
14117;BME280;7137;51.436;6.544;2023-07-24T03:45:29;99930.84;;;18.35;100.00
14117;BME280;7137;51.436;6.544;2023-07-24T03:48:31;99928.78;;;18.39;100.00
14117;BME280;7137;51.436;6.544;2023-07-24T03:51:32;99925.06;;;18.30;100.00
14117;BME280;7137;51.436;6.544;2023-07-24T03:54:34;99914.25;;;18.33;100.00
14117;BME280;7137;51.436;6.544;2023-07-24T03:57:38;99909.31;;;18.40;100.00
14117;BME280;7137;51.436;6.544;2023-07-24T04:00:40;99912.69;;;18.42;100.00
14117;BME280;7137;51.436;6.544;2023-07-24T04:03:41;99913.75;;;18.39;100.00
14117;BME280;7137;51.436;6.544;2023-07-24T04:06:43;99916.78;;;18.35;100.00
14117;BME280;7137;51.436;6.544;2023-07-24T04:09:44;99911.38;;;18.48;100.00
14117;BME280;7137;51.436;6.544;2023-07-24T04:12:47;99909.81;;;18.45;100.00
14117;BME280;7137;51.436;6.544;2023-07-24T04:15:49;99909.06;;;18.43;100.00
14117;BME280;7137;51.436;6.544;2023-07-24T04:18:50;99902.59;;;18.47;100.00
14117;BME280;7137;51.436;6.544;2023-07-24T04:21:52;99893.44;;;18.29;100.00
14117;BME280;7137;51.436;6.544;2023-07-24T04:24:53;99898.63;;;18.30;100.00
14117;BME280;7137;51.436;6.544;2023-07-24T04:27:56;99893.06;;;18.22;100.00
14117;BME280;7137;51.436;6.544;2023-07-24T04:31:00;99894.59;;;18.14;100.00
14117;BME280;7137;51.436;6.544;2023-07-24T04:34:01;99900.50;;;18.28;100.00
14117;BME280;7137;51.436;6.544;2023-07-24T04:37:03;99911.31;;;18.14;100.00
14117;BME280;7137;51.436;6.544;2023-07-24T04:40:06;99910.50;;;18.25;100.00
14117;BME280;7137;51.436;6.544;2023-07-24T04:43:09;99913.50;;;18.20;100.00
14117;BME280;7137;51.436;6.544;2023-07-24T04:46:10;99925.28;;;18.27;100.00
14117;BME280;7137;51.436;6.544;2023-07-24T04:49:12;99927.19;;;18.25;100.00
14117;BME280;7137;51.436;6.544;2023-07-24T04:52:13;99919.19;;;18.38;100.00
14117;BME280;7137;51.436;6.544;2023-07-24T04:55:15;99913.78;;;18.51;100.00
14117;BME280;7137;51.436;6.544;2023-07-24T04:58:18;99919.66;;;18.43;100.00
14117;BME280;7137;51.436;6.544;2023-07-24T05:01:20;99914.72;;;18.38;100.00
14117;BME280;7137;51.436;6.544;2023-07-24T05:04:21;99925.91;;;18.42;100.00
14117;BME280;7137;51.436;6.544;2023-07-24T05:07:23;99933.63;;;18.45;100.00
14117;BME280;7137;51.436;6.544;2023-07-24T05:10:24;99930.75;;;18.48;100.00
14117;BME280;7137;51.436;6.544;2023-07-24T05:13:27;99940.97;;;18.53;100.00
14117;BME280;7137;51.436;6.544;2023-07-24T05:16:29;99950.78;;;18.39;100.00
14117;BME280;7137;51.436;6.544;2023-07-24T05:19:31;99943.94;;;18.37;100.00
14117;BME280;7137;51.436;6.544;2023-07-24T05:22:33;99949.72;;;18.42;100.00
14117;BME280;7137;51.436;6.544;2023-07-24T05:25:34;99960.28;;;18.31;100.00
14117;BME280;7137;51.436;6.544;2023-07-24T05:28:37;99956.19;;;18.38;100.00
14117;BME280;7137;51.436;6.544;2023-07-24T05:31:39;99949.34;;;18.35;100.00
14117;BME280;7137;51.436;6.544;2023-07-24T05:34:40;99948.50;;;18.35;100.00
14117;BME280;7137;51.436;6.544;2023-07-24T05:37:42;99941.81;;;18.53;100.00
14117;BME280;7137;51.436;6.544;2023-07-24T05:40:43;99943.47;;;18.43;100.00
14117;BME280;7137;51.436;6.544;2023-07-24T05:43:46;99938.25;;;18.65;100.00
14117;BME280;7137;51.436;6.544;2023-07-24T05:46:48;99944.25;;;18.79;100.00
14117;BME280;7137;51.436;6.544;2023-07-24T05:49:50;99940.41;;;18.94;100.00
14117;BME280;7137;51.436;6.544;2023-07-24T05:52:52;99936.69;;;18.96;100.00
14117;BME280;7137;51.436;6.544;2023-07-24T05:55:57;99937.31;;;18.89;100.00
14117;BME280;7137;51.436;6.544;2023-07-24T05:59:01;99947.38;;;18.84;100.00
14117;BME280;7137;51.436;6.544;2023-07-24T06:02:03;99961.69;;;18.81;100.00
14117;BME280;7137;51.436;6.544;2023-07-24T06:05:06;99959.78;;;18.72;100.00
14117;BME280;7137;51.436;6.544;2023-07-24T06:08:07;99935.34;;;18.68;100.00
14117;BME280;7137;51.436;6.544;2023-07-24T06:11:11;99948.97;;;18.75;100.00
14117;BME280;7137;51.436;6.544;2023-07-24T06:14:14;99951.38;;;19.01;100.00
14117;BME280;7137;51.436;6.544;2023-07-24T06:17:15;99946.88;;;19.35;100.00
14117;BME280;7137;51.436;6.544;2023-07-24T06:20:17;99948.06;;;19.42;100.00
14117;BME280;7137;51.436;6.544;2023-07-24T06:23:18;99950.47;;;19.45;100.00
14117;BME280;7137;51.436;6.544;2023-07-24T06:26:20;99955.78;;;19.45;100.00
14117;BME280;7137;51.436;6.544;2023-07-24T06:29:23;99960.97;;;19.35;100.00
14117;BME280;7137;51.436;6.544;2023-07-24T06:32:26;99964.72;;;18.88;100.00
14117;BME280;7137;51.436;6.544;2023-07-24T06:35:28;99972.25;;;18.59;100.00
14117;BME280;7137;51.436;6.544;2023-07-24T06:38:29;99972.53;;;18.43;100.00
14117;BME280;7137;51.436;6.544;2023-07-24T06:41:31;99981.75;;;18.61;100.00
14117;BME280;7137;51.436;6.544;2023-07-24T06:44:34;99982.25;;;18.66;100.00
14117;BME280;7137;51.436;6.544;2023-07-24T06:47:36;99977.75;;;18.45;100.00
14117;BME280;7137;51.436;6.544;2023-07-24T06:50:38;99987.28;;;18.23;100.00
14117;BME280;7137;51.436;6.544;2023-07-24T06:53:39;99983.59;;;18.37;100.00
14117;BME280;7137;51.436;6.544;2023-07-24T06:56:41;99972.81;;;18.51;100.00
14117;BME280;7137;51.436;6.544;2023-07-24T06:59:44;99981.91;;;18.71;100.00
14117;BME280;7137;51.436;6.544;2023-07-24T07:02:45;99982.75;;;19.27;100.00
14117;BME280;7137;51.436;6.544;2023-07-24T07:05:47;99979.75;;;19.32;100.00
14117;BME280;7137;51.436;6.544;2023-07-24T07:08:48;99988.78;;;19.07;100.00
14117;BME280;7137;51.436;6.544;2023-07-24T07:11:50;99983.84;;;18.80;100.00
14117;BME280;7137;51.436;6.544;2023-07-24T07:14:53;99980.84;;;19.18;100.00
14117;BME280;7137;51.436;6.544;2023-07-24T07:17:54;99972.25;;;19.71;100.00
14117;BME280;7137;51.436;6.544;2023-07-24T07:20:56;99984.28;;;19.75;100.00
14117;BME280;7137;51.436;6.544;2023-07-24T07:23:57;99970.31;;;20.26;100.00
14117;BME280;7137;51.436;6.544;2023-07-24T07:26:59;99982.31;;;20.41;100.00
14117;BME280;7137;51.436;6.544;2023-07-24T07:30:02;99975.78;;;20.87;99.32
14117;BME280;7137;51.436;6.544;2023-07-24T07:33:05;99986.25;;;21.19;96.97
14117;BME280;7137;51.436;6.544;2023-07-24T07:36:06;99986.06;;;21.31;95.62
14117;BME280;7137;51.436;6.544;2023-07-24T07:39:08;99976.53;;;21.29;95.41
14117;BME280;7137;51.436;6.544;2023-07-24T07:42:09;99979.09;;;21.40;95.54
14117;BME280;7137;51.436;6.544;2023-07-24T07:45:12;99966.75;;;20.99;96.32
14117;BME280;7137;51.436;6.544;2023-07-24T07:48:14;99972.38;;;20.54;98.07
14117;BME280;7137;51.436;6.544;2023-07-24T07:51:16;99968.97;;;20.31;98.97
14117;BME280;7137;51.436;6.544;2023-07-24T07:54:17;99971.63;;;20.42;98.58
14117;BME280;7137;51.436;6.544;2023-07-24T07:57:19;99965.63;;;20.71;98.45
14117;BME280;7137;51.436;6.544;2023-07-24T08:00:22;99973.63;;;21.11;96.03
14117;BME280;7137;51.436;6.544;2023-07-24T08:03:23;99980.91;;;21.09;92.83
14117;BME280;7137;51.436;6.544;2023-07-24T08:06:25;99972.63;;;22.31;89.47
14117;BME280;7137;51.436;6.544;2023-07-24T08:09:27;99963.34;;;23.38;79.46
14117;BME280;7137;51.436;6.544;2023-07-24T08:12:29;99956.22;;;22.92;83.66
14117;BME280;7137;51.436;6.544;2023-07-24T08:15:35;99953.03;;;22.89;83.08
14117;BME280;7137;51.436;6.544;2023-07-24T08:18:36;99945.59;;;23.20;80.70
14117;BME280;7137;51.436;6.544;2023-07-24T08:21:40;99961.72;;;23.91;76.81
14117;BME280;7137;51.436;6.544;2023-07-24T08:24:41;99958.22;;;27.25;65.05
14117;BME280;7137;51.436;6.544;2023-07-24T08:27:45;99953.50;;;27.27;67.27
14117;BME280;7137;51.436;6.544;2023-07-24T08:30:55;99957.19;;;25.23;67.22
14117;BME280;7137;51.436;6.544;2023-07-24T08:33:57;99953.72;;;26.54;66.70
14117;BME280;7137;51.436;6.544;2023-07-24T08:36:59;99958.91;;;31.22;51.67
14117;BME280;7137;51.436;6.544;2023-07-24T08:40:01;99958.19;;;29.44;52.42
14117;BME280;7137;51.436;6.544;2023-07-24T08:43:02;99952.69;;;30.59;51.27
14117;BME280;7137;51.436;6.544;2023-07-24T08:46:06;99957.72;;;31.31;48.85
14117;BME280;7137;51.436;6.544;2023-07-24T08:49:11;99947.28;;;28.12;60.55
14117;BME280;7137;51.436;6.544;2023-07-24T08:52:13;99940.53;;;28.91;54.48
14117;BME280;7137;51.436;6.544;2023-07-24T08:55:15;99942.84;;;27.50;58.05
14117;BME280;7137;51.436;6.544;2023-07-24T08:58:17;99943.69;;;27.11;59.29
14117;BME280;7137;51.436;6.544;2023-07-24T09:01:20;99937.03;;;27.38;60.73
14117;BME280;7137;51.436;6.544;2023-07-24T09:04:22;99925.25;;;29.42;51.13
14117;BME280;7137;51.436;6.544;2023-07-24T09:07:23;99930.84;;;30.82;47.33
14117;BME280;7137;51.436;6.544;2023-07-24T09:10:25;99919.69;;;27.18;60.38
14117;BME280;7137;51.436;6.544;2023-07-24T09:13:28;99915.31;;;26.70;60.54
14117;BME280;7137;51.436;6.544;2023-07-24T09:16:31;99916.22;;;27.40;59.94
14117;BME280;7137;51.436;6.544;2023-07-24T09:19:33;99918.44;;;29.61;51.83
14117;BME280;7137;51.436;6.544;2023-07-24T09:22:34;99920.78;;;30.97;49.57
14117;BME280;7137;51.436;6.544;2023-07-24T09:25:38;99931.69;;;29.12;52.10
14117;BME280;7137;51.436;6.544;2023-07-24T09:28:40;99907.66;;;26.26;59.09
14117;BME280;7137;51.436;6.544;2023-07-24T09:31:42;99900.19;;;25.22;66.79
14117;BME280;7137;51.436;6.544;2023-07-24T09:34:45;99901.22;;;24.61;68.98
14117;BME280;7137;51.436;6.544;2023-07-24T09:37:47;99891.66;;;23.89;75.38
14117;BME280;7137;51.436;6.544;2023-07-24T09:40:49;99874.78;;;23.80;72.49
14117;BME280;7137;51.436;6.544;2023-07-24T09:43:57;99886.97;;;23.83;77.25
14117;BME280;7137;51.436;6.544;2023-07-24T09:47:01;99878.00;;;24.62;71.61
14117;BME280;7137;51.436;6.544;2023-07-24T09:50:04;99879.19;;;24.33;71.31
14117;BME280;7137;51.436;6.544;2023-07-24T09:53:06;99877.84;;;23.67;73.96
14117;BME280;7137;51.436;6.544;2023-07-24T09:56:10;99866.84;;;23.71;75.88
14117;BME280;7137;51.436;6.544;2023-07-24T09:59:13;99867.50;;;24.34;75.46
14117;BME280;7137;51.436;6.544;2023-07-24T10:02:17;99852.84;;;24.12;71.48
14117;BME280;7137;51.436;6.544;2023-07-24T10:05:19;99859.03;;;24.21;73.63
14117;BME280;7137;51.436;6.544;2023-07-24T10:08:21;99846.41;;;24.83;70.26
14117;BME280;7137;51.436;6.544;2023-07-24T10:11:24;99839.78;;;23.83;74.41
14117;BME280;7137;51.436;6.544;2023-07-24T10:14:26;99843.69;;;23.71;77.78
14117;BME280;7137;51.436;6.544;2023-07-24T10:17:38;99842.16;;;24.72;77.27
14117;BME280;7137;51.436;6.544;2023-07-24T10:20:40;99834.25;;;25.80;70.94
14117;BME280;7137;51.436;6.544;2023-07-24T10:23:44;99838.81;;;25.12;74.82
14117;BME280;7137;51.436;6.544;2023-07-24T10:26:46;99845.41;;;24.24;78.86
14117;BME280;7137;51.436;6.544;2023-07-24T10:29:58;99839.47;;;23.51;82.45
14117;BME280;7137;51.436;6.544;2023-07-24T10:33:08;99843.59;;;22.72;85.44
14117;BME280;7137;51.436;6.544;2023-07-24T10:36:10;99843.03;;;22.41;87.55
14117;BME280;7137;51.436;6.544;2023-07-24T10:39:15;99835.72;;;22.43;87.53
14117;BME280;7137;51.436;6.544;2023-07-24T10:42:22;99831.81;;;22.38;86.34
14117;BME280;7137;51.436;6.544;2023-07-24T10:45:24;99842.59;;;22.36;88.04
14117;BME280;7137;51.436;6.544;2023-07-24T10:48:27;99835.28;;;22.48;86.77
14117;BME280;7137;51.436;6.544;2023-07-24T10:51:29;99834.34;;;22.39;87.66
14117;BME280;7137;51.436;6.544;2023-07-24T10:54:33;99844.78;;;22.04;87.51
14117;BME280;7137;51.436;6.544;2023-07-24T10:57:35;99848.19;;;21.57;89.00
14117;BME280;7137;51.436;6.544;2023-07-24T11:00:38;99861.63;;;21.56;92.74
14117;BME280;7137;51.436;6.544;2023-07-24T11:03:42;99868.25;;;21.12;93.84
14117;BME280;7137;51.436;6.544;2023-07-24T11:06:45;99853.25;;;21.11;97.84
14117;BME280;7137;51.436;6.544;2023-07-24T11:09:47;99847.78;;;20.83;97.99
14117;BME280;7137;51.436;6.544;2023-07-24T11:12:48;99827.22;;;20.45;100.00
14117;BME280;7137;51.436;6.544;2023-07-24T11:15:50;99829.19;;;20.43;100.00
14117;BME280;7137;51.436;6.544;2023-07-24T11:18:54;99830.56;;;20.47;100.00
14117;BME280;7137;51.436;6.544;2023-07-24T11:21:55;99838.72;;;20.55;100.00
14117;BME280;7137;51.436;6.544;2023-07-24T11:24:58;99853.91;;;20.53;100.00
14117;BME280;7137;51.436;6.544;2023-07-24T11:28:01;99860.53;;;20.68;100.00
14117;BME280;7137;51.436;6.544;2023-07-24T11:31:04;99858.63;;;20.70;100.00
14117;BME280;7137;51.436;6.544;2023-07-24T11:34:07;99844.66;;;20.78;100.00
14117;BME280;7137;51.436;6.544;2023-07-24T11:37:09;99834.34;;;20.85;100.00
14117;BME280;7137;51.436;6.544;2023-07-24T11:40:11;99830.59;;;20.87;100.00
14117;BME280;7137;51.436;6.544;2023-07-24T11:43:16;99840.88;;;20.71;100.00
14117;BME280;7137;51.436;6.544;2023-07-24T11:46:24;99800.25;;;20.90;100.00
14117;BME280;7137;51.436;6.544;2023-07-24T11:49:27;99792.34;;;21.38;100.00
14117;BME280;7137;51.436;6.544;2023-07-24T11:52:38;99800.41;;;21.94;100.00
14117;BME280;7137;51.436;6.544;2023-07-24T11:55:40;99807.63;;;22.21;98.18
14117;BME280;7137;51.436;6.544;2023-07-24T11:58:42;99808.47;;;23.14;91.09
14117;BME280;7137;51.436;6.544;2023-07-24T12:01:45;99825.31;;;24.12;90.78
14117;BME280;7137;51.436;6.544;2023-07-24T12:04:55;99842.06;;;24.22;86.72
14117;BME280;7137;51.436;6.544;2023-07-24T12:07:58;99838.91;;;24.26;88.32
14117;BME280;7137;51.436;6.544;2023-07-24T12:10:59;99851.09;;;24.03;91.51
14117;BME280;7137;51.436;6.544;2023-07-24T12:14:01;99851.16;;;24.11;88.75
14117;BME280;7137;51.436;6.544;2023-07-24T12:17:03;99847.59;;;23.14;86.67
14117;BME280;7137;51.436;6.544;2023-07-24T12:20:11;99847.19;;;22.81;89.87
14117;BME280;7137;51.436;6.544;2023-07-24T12:23:13;99855.91;;;23.10;89.26
14117;BME280;7137;51.436;6.544;2023-07-24T12:26:14;99857.84;;;23.54;86.72
14117;BME280;7137;51.436;6.544;2023-07-24T12:29:16;99860.03;;;23.23;87.83
14117;BME280;7137;51.436;6.544;2023-07-24T12:32:17;99855.53;;;24.20;84.86
14117;BME280;7137;51.436;6.544;2023-07-24T12:35:21;99854.81;;;23.66;83.93
14117;BME280;7137;51.436;6.544;2023-07-24T12:38:24;99852.56;;;23.08;81.85
14117;BME280;7137;51.436;6.544;2023-07-24T12:41:25;99849.41;;;24.02;82.97
14117;BME280;7137;51.436;6.544;2023-07-24T12:44:27;99847.00;;;24.17;77.87
14117;BME280;7137;51.436;6.544;2023-07-24T12:47:29;99841.38;;;23.94;77.76
14117;BME280;7137;51.436;6.544;2023-07-24T12:50:32;99839.97;;;23.19;81.72
14117;BME280;7137;51.436;6.544;2023-07-24T12:53:34;99843.13;;;23.32;81.24
14117;BME280;7137;51.436;6.544;2023-07-24T12:56:35;99837.09;;;23.48;78.86
14117;BME280;7137;51.436;6.544;2023-07-24T12:59:37;99844.41;;;23.99;74.62
14117;BME280;7137;51.436;6.544;2023-07-24T13:02:39;99824.09;;;23.27;77.68
14117;BME280;7137;51.436;6.544;2023-07-24T13:05:41;99824.75;;;23.29;78.85
14117;BME280;7137;51.436;6.544;2023-07-24T13:08:43;99812.09;;;22.95;78.97
14117;BME280;7137;51.436;6.544;2023-07-24T13:11:45;99805.00;;;23.04;77.14
14117;BME280;7137;51.436;6.544;2023-07-24T13:14:48;99803.28;;;23.84;76.83
14117;BME280;7137;51.436;6.544;2023-07-24T13:17:50;99812.34;;;23.20;73.18
14117;BME280;7137;51.436;6.544;2023-07-24T13:20:53;99815.81;;;23.65;74.88
14117;BME280;7137;51.436;6.544;2023-07-24T13:23:54;99811.94;;;23.86;73.57
14117;BME280;7137;51.436;6.544;2023-07-24T13:26:56;99807.00;;;23.73;72.58
14117;BME280;7137;51.436;6.544;2023-07-24T13:29:59;99814.56;;;23.60;72.54
14117;BME280;7137;51.436;6.544;2023-07-24T13:33:00;99813.88;;;23.76;71.65
14117;BME280;7137;51.436;6.544;2023-07-24T13:36:04;99818.28;;;24.11;70.50
14117;BME280;7137;51.436;6.544;2023-07-24T13:39:05;99816.19;;;24.22;68.62
14117;BME280;7137;51.436;6.544;2023-07-24T13:42:07;99812.53;;;24.49;68.90
14117;BME280;7137;51.436;6.544;2023-07-24T13:45:09;99807.88;;;24.25;68.18
14117;BME280;7137;51.436;6.544;2023-07-24T13:48:11;99816.66;;;24.18;65.81
14117;BME280;7137;51.436;6.544;2023-07-24T13:51:13;99809.47;;;24.36;67.20
14117;BME280;7137;51.436;6.544;2023-07-24T13:54:15;99802.19;;;23.94;66.91
14117;BME280;7137;51.436;6.544;2023-07-24T13:57:17;99797.03;;;23.75;68.53
14117;BME280;7137;51.436;6.544;2023-07-24T14:00:18;99796.44;;;23.63;69.26
14117;BME280;7137;51.436;6.544;2023-07-24T14:03:20;99787.69;;;23.97;68.39
14117;BME280;7137;51.436;6.544;2023-07-24T14:06:23;99794.13;;;24.12;65.99
14117;BME280;7137;51.436;6.544;2023-07-24T14:09:24;99793.69;;;23.73;68.72
14117;BME280;7137;51.436;6.544;2023-07-24T14:12:26;99788.28;;;24.43;65.37
14117;BME280;7137;51.436;6.544;2023-07-24T14:15:28;99785.50;;;24.61;61.88
14117;BME280;7137;51.436;6.544;2023-07-24T14:18:29;99786.63;;;23.90;61.41
14117;BME280;7137;51.436;6.544;2023-07-24T14:21:32;99781.69;;;23.77;61.79
14117;BME280;7137;51.436;6.544;2023-07-24T14:24:34;99783.84;;;23.20;63.21
14117;BME280;7137;51.436;6.544;2023-07-24T14:27:35;99784.31;;;22.98;64.12
14117;BME280;7137;51.436;6.544;2023-07-24T14:30:37;99786.28;;;23.49;64.12
14117;BME280;7137;51.436;6.544;2023-07-24T14:33:39;99782.13;;;23.29;63.37
14117;BME280;7137;51.436;6.544;2023-07-24T14:36:42;99786.59;;;23.64;62.70
14117;BME280;7137;51.436;6.544;2023-07-24T14:39:43;99791.50;;;23.51;64.03
14117;BME280;7137;51.436;6.544;2023-07-24T14:42:45;99787.88;;;24.30;65.60
14117;BME280;7137;51.436;6.544;2023-07-24T14:45:47;99791.78;;;24.17;65.63
14117;BME280;7137;51.436;6.544;2023-07-24T14:48:49;99783.06;;;23.81;66.42
14117;BME280;7137;51.436;6.544;2023-07-24T14:51:52;99788.41;;;22.92;66.59
14117;BME280;7137;51.436;6.544;2023-07-24T14:54:53;99796.97;;;22.96;68.51
14117;BME280;7137;51.436;6.544;2023-07-24T14:57:55;99808.63;;;23.30;68.02
14117;BME280;7137;51.436;6.544;2023-07-24T15:00:56;99800.56;;;23.40;66.40
14117;BME280;7137;51.436;6.544;2023-07-24T15:03:58;99799.47;;;23.51;65.72
14117;BME280;7137;51.436;6.544;2023-07-24T15:07:01;99809.31;;;22.60;68.13
14117;BME280;7137;51.436;6.544;2023-07-24T15:10:03;99823.72;;;22.30;67.67
14117;BME280;7137;51.436;6.544;2023-07-24T15:13:05;99824.63;;;22.11;66.34
14117;BME280;7137;51.436;6.544;2023-07-24T15:16:06;99831.03;;;22.28;66.85
14117;BME280;7137;51.436;6.544;2023-07-24T15:19:08;99834.31;;;21.73;69.48
14117;BME280;7137;51.436;6.544;2023-07-24T15:22:12;99836.09;;;22.02;69.80
14117;BME280;7137;51.436;6.544;2023-07-24T15:25:13;99846.59;;;22.03;70.12
14117;BME280;7137;51.436;6.544;2023-07-24T15:28:15;99847.63;;;21.73;71.35
14117;BME280;7137;51.436;6.544;2023-07-24T15:31:16;99845.38;;;21.49;72.65
14117;BME280;7137;51.436;6.544;2023-07-24T15:34:18;99840.34;;;21.56;72.68
14117;BME280;7137;51.436;6.544;2023-07-24T15:37:21;99838.78;;;21.63;73.41
14117;BME280;7137;51.436;6.544;2023-07-24T15:40:22;99839.63;;;21.63;76.25
14117;BME280;7137;51.436;6.544;2023-07-24T15:43:24;99850.94;;;21.37;80.97
14117;BME280;7137;51.436;6.544;2023-07-24T15:46:26;99846.56;;;20.57;86.19
14117;BME280;7137;51.436;6.544;2023-07-24T15:49:29;99845.25;;;20.51;89.58
14117;BME280;7137;51.436;6.544;2023-07-24T15:52:32;99847.88;;;20.41;90.30
14117;BME280;7137;51.436;6.544;2023-07-24T15:55:33;99851.84;;;20.36;93.11
14117;BME280;7137;51.436;6.544;2023-07-24T15:58:35;99856.28;;;20.47;93.55
14117;BME280;7137;51.436;6.544;2023-07-24T16:01:37;99848.31;;;20.26;93.05
14117;BME280;7137;51.436;6.544;2023-07-24T16:04:39;99848.59;;;20.43;93.37
14117;BME280;7137;51.436;6.544;2023-07-24T16:07:42;99859.53;;;20.39;94.04
14117;BME280;7137;51.436;6.544;2023-07-24T16:10:43;99850.75;;;20.69;92.86